Time,TemperatureF,DewpointF,PressureIn,WindDirection,WindDirectionDegrees,WindSpeedMPH,WindSpeedGustMPH,Humidity,HourlyPrecipIn,Conditions,Clouds,dailyrainin,SolarRadiationWatts/m^2,SoftwareType,DateUTC
2013-04-07 00:02:00,43.0,41.0,-100.00,North,354,0.0,6.0,94,0.00,,,0.92,0.000000,,2013-04-07 07:02:00,
2013-04-07 00:12:00,43.0,41.0,-100.00,North,354,0.0,6.0,94,0.00,,,0.92,0.000000,,2013-04-07 07:12:00,
2013-04-07 00:22:00,43.0,41.0,-100.00,North,354,0.0,6.0,94,0.00,,,0.92,0.000000,,2013-04-07 07:22:00,
2013-04-07 00:32:00,43.0,41.0,-100.00,North,354,0.0,6.0,94,0.00,,,0.92,0.000000,,2013-04-07 07:32:00,
2013-04-07 00:52:00,42.0,41.0,-100.00,NE,36,2.0,6.0,95,0.01,,,0.79,0.000000,,2013-04-07 07:52:00,
2013-04-07 01:02:00,42.0,41.0,-100.00,NE,36,2.0,6.0,95,0.01,,,0.79,0.000000,,2013-04-07 08:02:00,
2013-04-07 01:12:00,42.0,41.0,-100.00,NE,36,2.0,6.0,95,0.01,,,0.79,0.000000,,2013-04-07 08:12:00,
2013-04-07 01:22:00,42.0,41.0,-100.00,NE,36,2.0,6.0,95,0.01,,,0.79,0.000000,,2013-04-07 08:22:00,
2013-04-07 01:32:00,42.0,41.0,-100.00,NE,36,2.0,6.0,95,0.01,,,0.79,0.000000,,2013-04-07 08:32:00,
2013-04-07 01:33:00,42.0,41.0,-100.00,NE,40,0.0,5.0,96,0.00,,,0.57,0.000000,,2013-04-07 08:33:00,
2013-04-07 01:53:00,42.0,41.0,-100.00,NE,40,0.0,5.0,96,0.00,,,0.57,0.000000,,2013-04-07 08:53:00,
2013-04-07 02:02:00,42.0,41.0,-100.00,NE,40,0.0,5.0,96,0.00,,,0.57,0.000000,,2013-04-07 09:02:00,
2013-04-07 02:12:00,42.0,41.0,-100.00,NE,40,0.0,5.0,96,0.00,,,0.57,0.000000,,2013-04-07 09:12:00,
2013-04-07 02:22:00,42.0,41.0,-100.00,NE,40,0.0,5.0,96,0.00,,,0.57,0.000000,,2013-04-07 09:22:00,
2013-04-07 02:53:00,42.0,41.0,-100.00,NNW,337,0.0,5.0,95,0.02,,,0.53,0.000000,,2013-04-07 09:53:00,
2013-04-07 03:03:00,42.0,41.0,-100.00,NNW,337,0.0,5.0,95,0.02,,,0.53,0.000000,,2013-04-07 10:03:00,
2013-04-07 03:13:00,42.0,41.0,-100.00,NNW,337,0.0,5.0,95,0.02,,,0.53,0.000000,,2013-04-07 10:13:00,
2013-04-07 03:22:00,42.0,41.0,-100.00,NNW,337,0.0,5.0,95,0.02,,,0.53,0.000000,,2013-04-07 10:22:00,
2013-04-07 03:32:00,42.0,41.0,-100.00,NNW,337,0.0,5.0,95,0.02,,,0.53,0.000000,,2013-04-07 10:32:00,
2013-04-07 03:53:00,41.0,40.0,-100.00,NW,317,3.0,6.0,95,0.04,,,0.49,0.000000,,2013-04-07 10:53:00,
2013-04-07 04:02:00,41.0,40.0,-100.00,NW,317,3.0,6.0,95,0.04,,,0.49,0.000000,,2013-04-07 11:02:00,
2013-04-07 04:12:00,41.0,40.0,-100.00,NW,317,3.0,6.0,95,0.04,,,0.49,0.000000,,2013-04-07 11:12:00,
2013-04-07 04:22:00,41.0,40.0,-100.00,NW,317,3.0,6.0,95,0.04,,,0.49,0.000000,,2013-04-07 11:22:00,
2013-04-07 04:32:00,41.0,40.0,-100.00,NW,317,3.0,6.0,95,0.04,,,0.49,0.000000,,2013-04-07 11:32:00,
2013-04-07 04:53:00,41.0,40.0,-100.00,WNW,300,1.0,4.0,96,0.01,,,0.43,0.000000,,2013-04-07 11:53:00,
2013-04-07 05:02:00,41.0,40.0,-100.00,WNW,300,1.0,4.0,96,0.01,,,0.43,0.000000,,2013-04-07 12:02:00,
2013-04-07 05:12:00,41.0,40.0,-100.00,WNW,300,1.0,4.0,96,0.01,,,0.43,0.000000,,2013-04-07 12:12:00,
2013-04-07 05:22:00,41.0,40.0,-100.00,WNW,300,1.0,4.0,96,0.01,,,0.43,0.000000,,2013-04-07 12:22:00,
2013-04-07 05:32:00,41.0,40.0,-100.00,WNW,300,1.0,4.0,96,0.01,,,0.43,0.000000,,2013-04-07 12:32:00,
2013-04-07 05:53:00,41.0,40.0,-100.00,North,356,2.0,8.0,95,0.00,,,0.41,0.000000,,2013-04-07 12:53:00,
2013-04-07 06:03:00,41.0,40.0,-100.00,North,356,2.0,8.0,95,0.00,,,0.41,0.000000,,2013-04-07 13:03:00,
2013-04-07 06:12:00,41.0,40.0,-100.00,North,356,2.0,8.0,95,0.00,,,0.41,0.000000,,2013-04-07 13:12:00,
2013-04-07 06:22:00,41.0,40.0,-100.00,North,356,2.0,8.0,95,0.00,,,0.41,0.000000,,2013-04-07 13:22:00,
2013-04-07 06:32:00,41.0,40.0,-100.00,North,356,2.0,8.0,95,0.00,,,0.41,0.000000,,2013-04-07 13:32:00,
2013-04-07 06:53:00,41.0,40.0,-100.00,NNW,327,1.0,7.0,95,0.00,,,0.37,0.000000,,2013-04-07 13:53:00,
2013-04-07 07:02:00,41.0,40.0,-100.00,NNW,327,1.0,7.0,95,0.00,,,0.37,0.000000,,2013-04-07 14:02:00,
2013-04-07 07:12:00,41.0,40.0,-100.00,NNW,327,1.0,7.0,95,0.00,,,0.37,0.000000,,2013-04-07 14:12:00,
2013-04-07 07:22:00,41.0,40.0,-100.00,NNW,327,1.0,7.0,95,0.00,,,0.37,0.000000,,2013-04-07 14:22:00,
2013-04-07 07:32:00,41.0,40.0,-100.00,NNW,327,1.0,7.0,95,0.00,,,0.37,0.000000,,2013-04-07 14:32:00,
2013-04-07 07:33:00,41.0,40.0,-100.00,WNW,289,0.0,3.0,95,0.00,,,0.36,6.000000,,2013-04-07 14:33:00,
2013-04-07 07:54:00,41.0,40.0,-100.00,WNW,289,0.0,3.0,95,0.00,,,0.36,6.000000,,2013-04-07 14:54:00,
2013-04-07 08:02:00,41.0,40.0,-100.00,WNW,289,0.0,3.0,95,0.00,,,0.36,6.000000,,2013-04-07 15:02:00,
2013-04-07 08:12:00,41.0,40.0,-100.00,WNW,289,0.0,3.0,95,0.00,,,0.36,6.000000,,2013-04-07 15:12:00,
2013-04-07 08:22:00,41.0,40.0,-100.00,WNW,289,0.0,3.0,95,0.00,,,0.36,6.000000,,2013-04-07 15:22:00,
2013-04-07 08:54:00,42.0,41.0,-100.00,WSW,254,2.0,4.0,95,0.02,,,0.38,29.000000,,2013-04-07 15:54:00,
2013-04-07 09:03:00,42.0,41.0,-100.00,WSW,254,2.0,4.0,95,0.02,,,0.38,29.000000,,2013-04-07 16:03:00,
2013-04-07 09:13:00,42.0,41.0,-100.00,WSW,254,2.0,4.0,95,0.02,,,0.38,29.000000,,2013-04-07 16:13:00,
2013-04-07 09:23:00,42.0,41.0,-100.00,WSW,254,2.0,4.0,95,0.02,,,0.38,29.000000,,2013-04-07 16:23:00,
2013-04-07 09:32:00,42.0,41.0,-100.00,WSW,254,2.0,4.0,95,0.02,,,0.38,29.000000,,2013-04-07 16:32:00,
2013-04-07 09:54:00,43.0,41.0,-100.00,West,270,1.0,6.0,93,0.02,,,0.39,68.000000,,2013-04-07 16:54:00,
2013-04-07 10:03:00,43.0,41.0,-100.00,West,270,1.0,6.0,93,0.02,,,0.39,68.000000,,2013-04-07 17:03:00,
2013-04-07 10:12:00,43.0,41.0,-100.00,West,270,1.0,6.0,93,0.02,,,0.39,68.000000,,2013-04-07 17:12:00,
2013-04-07 10:22:00,43.0,41.0,-100.00,West,270,1.0,6.0,93,0.02,,,0.39,68.000000,,2013-04-07 17:22:00,
2013-04-07 10:32:00,43.0,41.0,-100.00,West,270,1.0,6.0,93,0.02,,,0.39,68.000000,,2013-04-07 17:32:00,
2013-04-07 10:53:00,44.0,42.0,-100.00,West,259,5.0,10.0,93,0.05,,,0.44,144.000000,,2013-04-07 17:53:00,
2013-04-07 11:02:00,44.0,42.0,-100.00,West,259,5.0,10.0,93,0.05,,,0.44,144.000000,,2013-04-07 18:02:00,
2013-04-07 11:13:00,44.0,42.0,-100.00,West,259,5.0,10.0,93,0.05,,,0.44,144.000000,,2013-04-07 18:13:00,
2013-04-07 11:22:00,44.0,42.0,-100.00,West,259,5.0,10.0,93,0.05,,,0.44,144.000000,,2013-04-07 18:22:00,
2013-04-07 11:32:00,44.0,42.0,-100.00,West,259,5.0,10.0,93,0.05,,,0.44,144.000000,,2013-04-07 18:32:00,
2013-04-07 11:53:00,45.0,43.0,-100.00,WSW,257,4.0,9.0,91,0.05,,,0.49,155.000000,,2013-04-07 18:53:00,
2013-04-07 12:02:00,45.0,43.0,-100.00,WSW,257,4.0,9.0,91,0.05,,,0.49,155.000000,,2013-04-07 19:02:00,
2013-04-07 12:12:00,45.0,43.0,-100.00,WSW,257,4.0,9.0,91,0.05,,,0.49,155.000000,,2013-04-07 19:12:00,
2013-04-07 12:22:00,45.0,43.0,-100.00,WSW,257,4.0,9.0,91,0.05,,,0.49,155.000000,,2013-04-07 19:22:00,
2013-04-07 12:32:00,45.0,43.0,-100.00,WSW,257,4.0,9.0,91,0.05,,,0.49,155.000000,,2013-04-07 19:32:00,
2013-04-07 12:54:00,48.0,44.0,-100.00,WNW,290,3.0,11.0,86,0.01,,,0.50,335.000000,,2013-04-07 19:54:00,
2013-04-07 13:02:00,48.0,44.0,-100.00,WNW,290,3.0,11.0,86,0.01,,,0.50,335.000000,,2013-04-07 20:02:00,
2013-04-07 13:12:00,48.0,44.0,-100.00,WNW,290,3.0,11.0,86,0.01,,,0.50,335.000000,,2013-04-07 20:12:00,
2013-04-07 13:22:00,48.0,44.0,-100.00,WNW,290,3.0,11.0,86,0.01,,,0.50,335.000000,,2013-04-07 20:22:00,
2013-04-07 13:32:00,48.0,44.0,-100.00,WNW,290,3.0,11.0,86,0.01,,,0.50,335.000000,,2013-04-07 20:32:00,
2013-04-07 13:33:00,47.0,44.0,-100.00,West,260,3.0,13.0,90,0.03,,,0.53,277.000000,,2013-04-07 20:33:00,
2013-04-07 13:53:00,47.0,44.0,-100.00,West,260,3.0,13.0,90,0.03,,,0.53,277.000000,,2013-04-07 20:53:00,
2013-04-07 14:02:00,47.0,44.0,-100.00,West,260,3.0,13.0,90,0.03,,,0.53,277.000000,,2013-04-07 21:02:00,
2013-04-07 14:12:00,47.0,44.0,-100.00,West,260,3.0,13.0,90,0.03,,,0.53,277.000000,,2013-04-07 21:12:00,
2013-04-07 14:22:00,47.0,44.0,-100.00,West,260,3.0,13.0,90,0.03,,,0.53,277.000000,,2013-04-07 21:22:00,
2013-04-07 14:33:00,48.0,44.0,-100.00,West,277,4.0,12.0,86,0.02,,,0.54,394.000000,,2013-04-07 21:33:00,
2013-04-07 14:55:00,48.0,44.0,-100.00,West,277,4.0,12.0,86,0.02,,,0.54,394.000000,,2013-04-07 21:55:00,
2013-04-07 15:03:00,48.0,44.0,-100.00,West,277,4.0,12.0,86,0.02,,,0.54,394.000000,,2013-04-07 22:03:00,
2013-04-07 15:13:00,48.0,44.0,-100.00,West,277,4.0,12.0,86,0.02,,,0.54,394.000000,,2013-04-07 22:13:00,
2013-04-07 15:23:00,48.0,44.0,-100.00,West,277,4.0,12.0,86,0.02,,,0.54,394.000000,,2013-04-07 22:23:00,
2013-04-07 15:53:00,47.0,43.0,-100.00,WNW,300,4.0,13.0,86,0.01,,,0.45,351.000000,,2013-04-07 22:53:00,
2013-04-07 16:03:00,47.0,43.0,-100.00,WNW,300,4.0,13.0,86,0.01,,,0.45,351.000000,,2013-04-07 23:03:00,
2013-04-07 16:12:00,47.0,43.0,-100.00,WNW,300,4.0,13.0,86,0.01,,,0.45,351.000000,,2013-04-07 23:12:00,
2013-04-07 16:22:00,47.0,43.0,-100.00,WNW,300,4.0,13.0,86,0.01,,,0.45,351.000000,,2013-04-07 23:22:00,
2013-04-07 16:32:00,47.0,43.0,-100.00,WNW,300,4.0,13.0,86,0.01,,,0.45,351.000000,,2013-04-07 23:32:00,
2013-04-07 16:52:00,47.0,43.0,-100.00,NW,311,3.0,15.0,86,0.00,,,0.35,327.000000,,2013-04-07 23:52:00,
2013-04-07 17:02:00,47.0,43.0,-100.00,NW,311,3.0,15.0,86,0.00,,,0.35,327.000000,,2013-04-08 00:02:00,
2013-04-07 17:12:00,47.0,43.0,-100.00,NW,311,3.0,15.0,86,0.00,,,0.35,327.000000,,2013-04-08 00:12:00,
2013-04-07 17:22:00,47.0,43.0,-100.00,NW,311,3.0,15.0,86,0.00,,,0.35,327.000000,,2013-04-08 00:22:00,
2013-04-07 17:32:00,47.0,43.0,-100.00,NW,311,3.0,15.0,86,0.00,,,0.35,327.000000,,2013-04-08 00:32:00,
2013-04-07 17:53:00,47.0,39.0,-100.00,West,275,5.0,14.0,75,0.00,,,0.32,232.000000,,2013-04-08 00:53:00,
2013-04-07 18:02:00,47.0,39.0,-100.00,West,275,5.0,14.0,75,0.00,,,0.32,232.000000,,2013-04-08 01:02:00,
2013-04-07 18:12:00,47.0,39.0,-100.00,West,275,5.0,14.0,75,0.00,,,0.32,232.000000,,2013-04-08 01:12:00,
2013-04-07 18:22:00,47.0,39.0,-100.00,West,275,5.0,14.0,75,0.00,,,0.32,232.000000,,2013-04-08 01:22:00,
2013-04-07 18:32:00,47.0,39.0,-100.00,West,275,5.0,14.0,75,0.00,,,0.32,232.000000,,2013-04-08 01:32:00,
2013-04-07 18:55:00,46.0,40.0,-100.00,West,274,3.0,13.0,79,0.00,,,0.29,130.000000,,2013-04-08 01:55:00,
2013-04-07 19:02:00,46.0,40.0,-100.00,West,274,3.0,13.0,79,0.00,,,0.29,130.000000,,2013-04-08 02:02:00,
2013-04-07 19:12:00,46.0,40.0,-100.00,West,274,3.0,13.0,79,0.00,,,0.29,130.000000,,2013-04-08 02:12:00,
2013-04-07 19:22:00,46.0,40.0,-100.00,West,274,3.0,13.0,79,0.00,,,0.29,130.000000,,2013-04-08 02:22:00,
2013-04-07 19:32:00,46.0,40.0,-100.00,West,274,3.0,13.0,79,0.00,,,0.29,130.000000,,2013-04-08 02:32:00,
2013-04-07 19:33:00,45.0,40.0,-100.00,West,263,3.0,12.0,84,0.00,,,0.29,47.000000,,2013-04-08 02:33:00,
2013-04-07 20:06:00,45.0,40.0,-100.00,West,263,3.0,12.0,84,0.00,,,0.29,47.000000,,2013-04-08 03:06:00,
2013-04-07 20:14:00,45.0,40.0,-100.00,West,263,3.0,12.0,84,0.00,,,0.29,47.000000,,2013-04-08 03:14:00,
2013-04-07 20:23:00,45.0,40.0,-100.00,West,263,3.0,12.0,84,0.00,,,0.29,47.000000,,2013-04-08 03:23:00,
2013-04-07 21:03:00,44.0,41.0,-100.00,SW,220,0.0,5.0,88,0.00,,,0.29,5.000000,,2013-04-08 04:03:00,
2013-04-07 21:12:00,44.0,41.0,-100.00,SW,220,0.0,5.0,88,0.00,,,0.29,5.000000,,2013-04-08 04:12:00,
2013-04-07 21:23:00,44.0,41.0,-100.00,SW,220,0.0,5.0,88,0.00,,,0.29,5.000000,,2013-04-08 04:23:00,
2013-04-07 21:32:00,44.0,41.0,-100.00,SW,220,0.0,5.0,88,0.00,,,0.29,5.000000,,2013-04-08 04:32:00,
2013-04-07 21:53:00,43.0,40.0,-100.00,SSW,210,0.0,3.0,90,0.00,,,0.29,0.000000,,2013-04-08 04:53:00,
2013-04-07 22:02:00,43.0,40.0,-100.00,SSW,210,0.0,3.0,90,0.00,,,0.29,0.000000,,2013-04-08 05:02:00,
2013-04-07 22:12:00,43.0,40.0,-100.00,SSW,210,0.0,3.0,90,0.00,,,0.29,0.000000,,2013-04-08 05:12:00,
2013-04-07 22:22:00,43.0,40.0,-100.00,SSW,210,0.0,3.0,90,0.00,,,0.29,0.000000,,2013-04-08 05:22:00,
2013-04-07 22:32:00,43.0,40.0,-100.00,SSW,210,0.0,3.0,90,0.00,,,0.29,0.000000,,2013-04-08 05:32:00,
2013-04-07 23:02:00,44.0,41.0,-100.00,South,170,1.0,4.0,88,0.00,,,0.29,0.000000,,2013-04-08 06:02:00,
2013-04-07 23:12:00,44.0,41.0,-100.00,South,170,1.0,4.0,88,0.00,,,0.29,0.000000,,2013-04-08 06:12:00,
2013-04-07 23:22:00,44.0,41.0,-100.00,South,170,1.0,4.0,88,0.00,,,0.29,0.000000,,2013-04-08 06:22:00,
2013-04-07 23:32:00,44.0,41.0,-100.00,South,170,1.0,4.0,88,0.00,,,0.29,0.000000,,2013-04-08 06:32:00,
2013-04-07 23:52:00,43.0,41.0,-100.00,SE,130,1.0,4.0,91,0.00,,,0.29,0.000000,,2013-04-08 06:52:00,